sensor_id;sensor_type;location;lat;lon;timestamp;P1;durP1;ratioP1;P2;durP2;ratioP2
27758;SDS011;15148;48.972;12.794;2023-07-28T00:01:19;5.55;;;3.95;;
27758;SDS011;15148;48.972;12.794;2023-07-28T00:06:20;3.97;;;3.58;;
27758;SDS011;15148;48.972;12.794;2023-07-28T00:11:22;4.95;;;3.70;;
27758;SDS011;15148;48.972;12.794;2023-07-28T00:16:24;5.57;;;3.53;;
27758;SDS011;15148;48.972;12.794;2023-07-28T00:21:26;3.55;;;2.95;;
27758;SDS011;15148;48.972;12.794;2023-07-28T00:26:28;5.32;;;3.45;;
27758;SDS011;15148;48.972;12.794;2023-07-28T00:31:30;4.53;;;3.70;;
27758;SDS011;15148;48.972;12.794;2023-07-28T00:36:32;4.70;;;3.65;;
27758;SDS011;15148;48.972;12.794;2023-07-28T00:41:34;5.15;;;3.63;;
27758;SDS011;15148;48.972;12.794;2023-07-28T00:46:36;11.57;;;3.50;;
27758;SDS011;15148;48.972;12.794;2023-07-28T00:51:38;4.22;;;3.63;;
27758;SDS011;15148;48.972;12.794;2023-07-28T00:56:41;3.90;;;3.53;;
27758;SDS011;15148;48.972;12.794;2023-07-28T01:01:43;4.95;;;3.40;;
27758;SDS011;15148;48.972;12.794;2023-07-28T01:07:01;3.97;;;3.63;;
27758;SDS011;15148;48.972;12.794;2023-07-28T01:12:10;5.75;;;3.42;;
27758;SDS011;15148;48.972;12.794;2023-07-28T01:17:12;5.07;;;3.45;;
27758;SDS011;15148;48.972;12.794;2023-07-28T01:22:35;5.22;;;4.47;;
27758;SDS011;15148;48.972;12.794;2023-07-28T01:27:43;4.25;;;3.20;;
27758;SDS011;15148;48.972;12.794;2023-07-28T01:32:46;5.18;;;3.15;;
27758;SDS011;15148;48.972;12.794;2023-07-28T01:37:48;4.20;;;3.80;;
27758;SDS011;15148;48.972;12.794;2023-07-28T01:42:52;4.38;;;3.50;;
27758;SDS011;15148;48.972;12.794;2023-07-28T01:47:54;4.55;;;3.95;;
27758;SDS011;15148;48.972;12.794;2023-07-28T01:52:56;3.97;;;3.47;;
27758;SDS011;15148;48.972;12.794;2023-07-28T01:57:59;5.35;;;4.13;;
27758;SDS011;15148;48.972;12.794;2023-07-28T02:03:02;9.75;;;4.80;;
27758;SDS011;15148;48.972;12.794;2023-07-28T02:08:05;3.85;;;3.35;;
27758;SDS011;15148;48.972;12.794;2023-07-28T02:13:06;4.30;;;3.83;;
27758;SDS011;15148;48.972;12.794;2023-07-28T02:18:08;4.63;;;3.85;;
27758;SDS011;15148;48.972;12.794;2023-07-28T02:23:10;5.25;;;3.63;;
27758;SDS011;15148;48.972;12.794;2023-07-28T02:28:14;4.13;;;3.72;;
27758;SDS011;15148;48.972;12.794;2023-07-28T02:33:16;3.88;;;3.58;;
27758;SDS011;15148;48.972;12.794;2023-07-28T02:38:17;4.20;;;3.65;;
27758;SDS011;15148;48.972;12.794;2023-07-28T02:43:19;5.95;;;3.67;;
27758;SDS011;15148;48.972;12.794;2023-07-28T02:48:21;4.82;;;4.00;;
27758;SDS011;15148;48.972;12.794;2023-07-28T02:53:24;5.82;;;4.10;;
27758;SDS011;15148;48.972;12.794;2023-07-28T02:58:26;4.65;;;4.15;;
27758;SDS011;15148;48.972;12.794;2023-07-28T03:03:28;4.32;;;3.92;;
27758;SDS011;15148;48.972;12.794;2023-07-28T03:08:30;4.22;;;3.75;;
27758;SDS011;15148;48.972;12.794;2023-07-28T03:13:49;5.05;;;3.85;;
27758;SDS011;15148;48.972;12.794;2023-07-28T03:18:51;4.72;;;4.10;;
27758;SDS011;15148;48.972;12.794;2023-07-28T03:23:53;4.43;;;4.03;;
27758;SDS011;15148;48.972;12.794;2023-07-28T03:28:55;5.68;;;3.70;;
27758;SDS011;15148;48.972;12.794;2023-07-28T03:33:57;6.53;;;4.40;;
27758;SDS011;15148;48.972;12.794;2023-07-28T03:39:00;4.57;;;4.18;;
27758;SDS011;15148;48.972;12.794;2023-07-28T03:44:03;4.63;;;4.22;;
27758;SDS011;15148;48.972;12.794;2023-07-28T03:49:05;10.77;;;4.38;;
27758;SDS011;15148;48.972;12.794;2023-07-28T03:54:07;4.35;;;3.95;;
27758;SDS011;15148;48.972;12.794;2023-07-28T03:59:09;4.15;;;3.75;;
27758;SDS011;15148;48.972;12.794;2023-07-28T04:04:11;7.13;;;3.53;;
27758;SDS011;15148;48.972;12.794;2023-07-28T04:09:14;4.35;;;3.95;;
27758;SDS011;15148;48.972;12.794;2023-07-28T04:14:16;5.47;;;4.25;;
27758;SDS011;15148;48.972;12.794;2023-07-28T04:19:17;4.97;;;3.88;;
27758;SDS011;15148;48.972;12.794;2023-07-28T04:24:19;6.07;;;4.10;;
27758;SDS011;15148;48.972;12.794;2023-07-28T04:29:22;4.85;;;4.03;;
27758;SDS011;15148;48.972;12.794;2023-07-28T04:34:25;4.78;;;4.03;;
27758;SDS011;15148;48.972;12.794;2023-07-28T04:39:39;3.85;;;3.55;;
27758;SDS011;15148;48.972;12.794;2023-07-28T04:44:42;6.15;;;4.30;;
27758;SDS011;15148;48.972;12.794;2023-07-28T04:49:46;4.03;;;3.65;;
27758;SDS011;15148;48.972;12.794;2023-07-28T04:55:11;4.30;;;3.90;;
27758;SDS011;15148;48.972;12.794;2023-07-28T05:00:13;8.65;;;4.28;;
27758;SDS011;15148;48.972;12.794;2023-07-28T05:05:15;5.28;;;4.00;;
27758;SDS011;15148;48.972;12.794;2023-07-28T05:10:17;7.13;;;5.07;;
27758;SDS011;15148;48.972;12.794;2023-07-28T05:15:19;5.22;;;4.80;;
27758;SDS011;15148;48.972;12.794;2023-07-28T05:20:21;5.32;;;4.82;;
27758;SDS011;15148;48.972;12.794;2023-07-28T05:25:39;6.80;;;4.50;;
27758;SDS011;15148;48.972;12.794;2023-07-28T05:30:41;5.53;;;4.43;;
27758;SDS011;15148;48.972;12.794;2023-07-28T05:35:43;5.32;;;4.35;;
27758;SDS011;15148;48.972;12.794;2023-07-28T05:40:44;5.43;;;4.18;;
27758;SDS011;15148;48.972;12.794;2023-07-28T05:45:46;6.00;;;4.55;;
27758;SDS011;15148;48.972;12.794;2023-07-28T05:50:50;6.00;;;4.57;;
27758;SDS011;15148;48.972;12.794;2023-07-28T05:55:53;6.47;;;4.75;;
27758;SDS011;15148;48.972;12.794;2023-07-28T06:00:56;6.63;;;5.20;;
27758;SDS011;15148;48.972;12.794;2023-07-28T06:06:23;5.23;;;4.73;;
27758;SDS011;15148;48.972;12.794;2023-07-28T06:11:26;7.95;;;4.95;;
27758;SDS011;15148;48.972;12.794;2023-07-28T06:16:29;7.88;;;4.78;;
27758;SDS011;15148;48.972;12.794;2023-07-28T06:21:32;4.85;;;4.40;;
27758;SDS011;15148;48.972;12.794;2023-07-28T06:26:35;4.65;;;4.25;;
27758;SDS011;15148;48.972;12.794;2023-07-28T06:31:37;5.25;;;4.75;;
27758;SDS011;15148;48.972;12.794;2023-07-28T06:36:39;5.25;;;4.80;;
27758;SDS011;15148;48.972;12.794;2023-07-28T06:41:41;5.68;;;5.07;;
27758;SDS011;15148;48.972;12.794;2023-07-28T06:46:46;5.68;;;5.07;;
27758;SDS011;15148;48.972;12.794;2023-07-28T06:51:49;6.63;;;5.80;;
27758;SDS011;15148;48.972;12.794;2023-07-28T06:56:52;6.82;;;5.43;;
27758;SDS011;15148;48.972;12.794;2023-07-28T07:01:54;6.22;;;5.63;;
27758;SDS011;15148;48.972;12.794;2023-07-28T07:06:56;7.88;;;6.00;;
27758;SDS011;15148;48.972;12.794;2023-07-28T07:11:58;5.80;;;5.25;;
27758;SDS011;15148;48.972;12.794;2023-07-28T07:17:00;6.22;;;5.30;;
27758;SDS011;15148;48.972;12.794;2023-07-28T07:22:02;4.93;;;4.50;;
27758;SDS011;15148;48.972;12.794;2023-07-28T07:27:04;6.07;;;4.95;;
27758;SDS011;15148;48.972;12.794;2023-07-28T07:32:07;5.47;;;4.97;;
27758;SDS011;15148;48.972;12.794;2023-07-28T07:37:09;7.57;;;5.10;;
27758;SDS011;15148;48.972;12.794;2023-07-28T07:42:11;7.78;;;5.05;;
27758;SDS011;15148;48.972;12.794;2023-07-28T07:47:15;6.60;;;5.93;;
27758;SDS011;15148;48.972;12.794;2023-07-28T07:52:17;6.00;;;5.45;;
27758;SDS011;15148;48.972;12.794;2023-07-28T07:57:19;9.32;;;7.35;;
27758;SDS011;15148;48.972;12.794;2023-07-28T08:02:21;7.07;;;6.38;;
27758;SDS011;15148;48.972;12.794;2023-07-28T08:07:23;6.65;;;5.65;;
27758;SDS011;15148;48.972;12.794;2023-07-28T08:12:24;9.55;;;5.78;;
27758;SDS011;15148;48.972;12.794;2023-07-28T08:17:26;8.38;;;6.38;;
27758;SDS011;15148;48.972;12.794;2023-07-28T08:22:28;6.32;;;5.15;;
27758;SDS011;15148;48.972;12.794;2023-07-28T08:27:30;7.07;;;5.20;;
27758;SDS011;15148;48.972;12.794;2023-07-28T08:32:32;5.32;;;4.80;;
27758;SDS011;15148;48.972;12.794;2023-07-28T08:37:35;7.65;;;4.90;;
27758;SDS011;15148;48.972;12.794;2023-07-28T08:42:38;7.20;;;4.82;;
27758;SDS011;15148;48.972;12.794;2023-07-28T08:47:40;5.25;;;4.55;;
27758;SDS011;15148;48.972;12.794;2023-07-28T08:52:43;7.03;;;4.70;;
27758;SDS011;15148;48.972;12.794;2023-07-28T08:57:45;6.82;;;4.88;;
27758;SDS011;15148;48.972;12.794;2023-07-28T09:02:48;5.90;;;5.40;;
27758;SDS011;15148;48.972;12.794;2023-07-28T09:07:51;5.55;;;4.85;;
27758;SDS011;15148;48.972;12.794;2023-07-28T09:12:53;5.32;;;4.82;;
27758;SDS011;15148;48.972;12.794;2023-07-28T09:17:55;6.20;;;4.53;;
27758;SDS011;15148;48.972;12.794;2023-07-28T09:22:57;6.57;;;4.78;;
27758;SDS011;15148;48.972;12.794;2023-07-28T09:27:59;7.95;;;6.07;;
27758;SDS011;15148;48.972;12.794;2023-07-28T09:33:02;5.60;;;5.10;;
27758;SDS011;15148;48.972;12.794;2023-07-28T09:38:05;4.88;;;4.45;;
27758;SDS011;15148;48.972;12.794;2023-07-28T09:43:07;6.60;;;4.90;;
27758;SDS011;15148;48.972;12.794;2023-07-28T09:48:09;4.38;;;3.97;;
27758;SDS011;15148;48.972;12.794;2023-07-28T09:53:14;6.35;;;5.35;;
27758;SDS011;15148;48.972;12.794;2023-07-28T09:58:17;6.47;;;5.10;;
27758;SDS011;15148;48.972;12.794;2023-07-28T10:03:21;6.63;;;6.00;;
27758;SDS011;15148;48.972;12.794;2023-07-28T10:08:24;6.35;;;5.57;;
27758;SDS011;15148;48.972;12.794;2023-07-28T10:13:27;6.38;;;5.78;;
27758;SDS011;15148;48.972;12.794;2023-07-28T10:18:29;9.65;;;5.00;;
27758;SDS011;15148;48.972;12.794;2023-07-28T10:23:32;8.40;;;5.95;;
27758;SDS011;15148;48.972;12.794;2023-07-28T10:28:39;5.40;;;4.75;;
27758;SDS011;15148;48.972;12.794;2023-07-28T10:33:45;5.30;;;4.55;;
27758;SDS011;15148;48.972;12.794;2023-07-28T10:44:05;5.63;;;4.68;;
27758;SDS011;15148;48.972;12.794;2023-07-28T10:49:08;5.25;;;4.75;;
27758;SDS011;15148;48.972;12.794;2023-07-28T10:54:10;4.55;;;4.07;;
27758;SDS011;15148;48.972;12.794;2023-07-28T10:59:17;4.28;;;3.90;;
27758;SDS011;15148;48.972;12.794;2023-07-28T11:04:19;4.57;;;4.18;;
27758;SDS011;15148;48.972;12.794;2023-07-28T11:09:22;4.30;;;3.90;;
27758;SDS011;15148;48.972;12.794;2023-07-28T11:14:27;3.95;;;3.55;;
27758;SDS011;15148;48.972;12.794;2023-07-28T11:19:30;4.65;;;3.83;;
27758;SDS011;15148;48.972;12.794;2023-07-28T11:24:34;3.25;;;3.00;;
27758;SDS011;15148;48.972;12.794;2023-07-28T11:29:36;3.70;;;3.38;;
27758;SDS011;15148;48.972;12.794;2023-07-28T11:34:38;3.58;;;3.25;;
27758;SDS011;15148;48.972;12.794;2023-07-28T11:39:42;4.03;;;3.60;;
27758;SDS011;15148;48.972;12.794;2023-07-28T11:44:45;4.45;;;4.05;;
27758;SDS011;15148;48.972;12.794;2023-07-28T11:49:47;4.45;;;3.58;;
27758;SDS011;15148;48.972;12.794;2023-07-28T11:54:50;3.85;;;3.45;;
27758;SDS011;15148;48.972;12.794;2023-07-28T11:59:53;3.95;;;3.55;;
27758;SDS011;15148;48.972;12.794;2023-07-28T12:04:56;4.00;;;3.67;;
27758;SDS011;15148;48.972;12.794;2023-07-28T12:10:03;4.53;;;4.13;;
27758;SDS011;15148;48.972;12.794;2023-07-28T12:15:27;4.30;;;3.65;;
27758;SDS011;15148;48.972;12.794;2023-07-28T12:25:40;5.20;;;3.95;;
27758;SDS011;15148;48.972;12.794;2023-07-28T12:30:42;5.70;;;4.20;;
27758;SDS011;15148;48.972;12.794;2023-07-28T12:35:45;5.88;;;3.65;;
27758;SDS011;15148;48.972;12.794;2023-07-28T12:40:50;6.20;;;4.18;;
27758;SDS011;15148;48.972;12.794;2023-07-28T12:45:56;5.15;;;4.65;;
27758;SDS011;15148;48.972;12.794;2023-07-28T12:51:01;5.93;;;4.80;;
27758;SDS011;15148;48.972;12.794;2023-07-28T12:56:04;6.22;;;4.75;;
27758;SDS011;15148;48.972;12.794;2023-07-28T13:01:07;4.57;;;4.15;;
27758;SDS011;15148;48.972;12.794;2023-07-28T13:06:12;6.65;;;4.25;;
27758;SDS011;15148;48.972;12.794;2023-07-28T13:11:13;5.03;;;4.50;;
27758;SDS011;15148;48.972;12.794;2023-07-28T13:16:18;5.90;;;4.70;;
27758;SDS011;15148;48.972;12.794;2023-07-28T13:21:20;6.25;;;4.75;;
27758;SDS011;15148;48.972;12.794;2023-07-28T13:26:22;4.95;;;4.45;;
27758;SDS011;15148;48.972;12.794;2023-07-28T13:31:24;6.10;;;4.30;;
27758;SDS011;15148;48.972;12.794;2023-07-28T13:36:26;7.25;;;4.82;;
27758;SDS011;15148;48.972;12.794;2023-07-28T13:41:28;6.88;;;4.90;;
27758;SDS011;15148;48.972;12.794;2023-07-28T13:46:30;5.07;;;4.20;;
27758;SDS011;15148;48.972;12.794;2023-07-28T13:51:32;6.55;;;4.25;;
27758;SDS011;15148;48.972;12.794;2023-07-28T13:56:54;8.30;;;5.03;;
27758;SDS011;15148;48.972;12.794;2023-07-28T14:01:59;10.25;;;5.38;;
27758;SDS011;15148;48.972;12.794;2023-07-28T14:07:01;6.78;;;5.32;;
27758;SDS011;15148;48.972;12.794;2023-07-28T14:12:03;4.78;;;4.15;;
27758;SDS011;15148;48.972;12.794;2023-07-28T14:17:05;5.72;;;4.70;;
27758;SDS011;15148;48.972;12.794;2023-07-28T14:22:08;5.55;;;4.70;;
27758;SDS011;15148;48.972;12.794;2023-07-28T14:27:10;4.10;;;3.70;;
27758;SDS011;15148;48.972;12.794;2023-07-28T14:32:12;5.00;;;4.13;;
27758;SDS011;15148;48.972;12.794;2023-07-28T14:37:13;4.90;;;4.38;;
27758;SDS011;15148;48.972;12.794;2023-07-28T14:42:15;4.60;;;4.20;;
27758;SDS011;15148;48.972;12.794;2023-07-28T14:47:17;5.57;;;4.15;;
27758;SDS011;15148;48.972;12.794;2023-07-28T14:52:19;5.13;;;4.32;;
27758;SDS011;15148;48.972;12.794;2023-07-28T14:57:21;3.58;;;3.28;;
27758;SDS011;15148;48.972;12.794;2023-07-28T15:02:35;4.43;;;3.90;;
27758;SDS011;15148;48.972;12.794;2023-07-28T15:07:39;7.43;;;4.43;;
27758;SDS011;15148;48.972;12.794;2023-07-28T15:12:42;5.78;;;3.88;;
27758;SDS011;15148;48.972;12.794;2023-07-28T15:17:46;4.05;;;3.75;;
27758;SDS011;15148;48.972;12.794;2023-07-28T15:22:48;3.65;;;3.28;;
27758;SDS011;15148;48.972;12.794;2023-07-28T15:27:49;3.15;;;2.85;;
27758;SDS011;15148;48.972;12.794;2023-07-28T15:32:51;2.90;;;2.70;;
27758;SDS011;15148;48.972;12.794;2023-07-28T15:37:53;2.95;;;2.75;;
27758;SDS011;15148;48.972;12.794;2023-07-28T15:42:55;4.30;;;3.10;;
27758;SDS011;15148;48.972;12.794;2023-07-28T15:47:57;3.45;;;2.80;;
27758;SDS011;15148;48.972;12.794;2023-07-28T15:52:59;3.58;;;3.28;;
27758;SDS011;15148;48.972;12.794;2023-07-28T15:58:01;2.90;;;2.70;;
27758;SDS011;15148;48.972;12.794;2023-07-28T16:03:03;3.55;;;2.90;;
27758;SDS011;15148;48.972;12.794;2023-07-28T16:08:05;3.88;;;3.50;;
27758;SDS011;15148;48.972;12.794;2023-07-28T16:13:07;4.43;;;3.42;;
27758;SDS011;15148;48.972;12.794;2023-07-28T16:18:09;4.82;;;3.20;;
27758;SDS011;15148;48.972;12.794;2023-07-28T16:23:12;4.75;;;2.80;;
27758;SDS011;15148;48.972;12.794;2023-07-28T16:28:14;3.47;;;3.17;;
27758;SDS011;15148;48.972;12.794;2023-07-28T16:33:16;6.85;;;3.10;;
27758;SDS011;15148;48.972;12.794;2023-07-28T16:38:18;4.10;;;2.58;;
27758;SDS011;15148;48.972;12.794;2023-07-28T16:43:20;6.47;;;3.33;;
27758;SDS011;15148;48.972;12.794;2023-07-28T16:48:21;3.28;;;2.13;;
27758;SDS011;15148;48.972;12.794;2023-07-28T16:53:23;8.88;;;2.17;;
27758;SDS011;15148;48.972;12.794;2023-07-28T16:58:25;3.97;;;2.00;;
27758;SDS011;15148;48.972;12.794;2023-07-28T17:03:27;2.17;;;1.98;;
27758;SDS011;15148;48.972;12.794;2023-07-28T17:08:29;5.20;;;2.35;;
27758;SDS011;15148;48.972;12.794;2023-07-28T17:13:31;3.30;;;1.92;;
27758;SDS011;15148;48.972;12.794;2023-07-28T17:18:33;5.80;;;2.20;;
27758;SDS011;15148;48.972;12.794;2023-07-28T17:23:34;7.18;;;2.38;;
27758;SDS011;15148;48.972;12.794;2023-07-28T17:28:37;1.73;;;1.60;;
27758;SDS011;15148;48.972;12.794;2023-07-28T17:33:39;5.45;;;2.55;;
27758;SDS011;15148;48.972;12.794;2023-07-28T17:38:41;2.65;;;1.98;;
27758;SDS011;15148;48.972;12.794;2023-07-28T17:43:43;2.05;;;1.85;;
27758;SDS011;15148;48.972;12.794;2023-07-28T17:48:45;3.65;;;1.92;;
27758;SDS011;15148;48.972;12.794;2023-07-28T17:53:46;2.10;;;1.92;;
27758;SDS011;15148;48.972;12.794;2023-07-28T17:58:48;2.42;;;1.83;;
27758;SDS011;15148;48.972;12.794;2023-07-28T18:03:50;1.95;;;1.85;;
27758;SDS011;15148;48.972;12.794;2023-07-28T18:08:55;2.92;;;1.90;;
27758;SDS011;15148;48.972;12.794;2023-07-28T18:13:57;2.78;;;2.30;;
27758;SDS011;15148;48.972;12.794;2023-07-28T18:18:59;2.65;;;2.00;;
27758;SDS011;15148;48.972;12.794;2023-07-28T18:24:01;4.97;;;2.25;;
27758;SDS011;15148;48.972;12.794;2023-07-28T18:29:03;2.40;;;2.08;;
27758;SDS011;15148;48.972;12.794;2023-07-28T18:34:05;6.85;;;2.15;;
27758;SDS011;15148;48.972;12.794;2023-07-28T18:39:08;8.30;;;2.33;;
27758;SDS011;15148;48.972;12.794;2023-07-28T18:44:10;5.38;;;2.65;;
27758;SDS011;15148;48.972;12.794;2023-07-28T18:49:12;4.15;;;2.10;;
27758;SDS011;15148;48.972;12.794;2023-07-28T18:54:13;2.30;;;1.98;;
27758;SDS011;15148;48.972;12.794;2023-07-28T18:59:15;2.40;;;2.15;;
27758;SDS011;15148;48.972;12.794;2023-07-28T19:04:17;3.60;;;1.98;;
27758;SDS011;15148;48.972;12.794;2023-07-28T19:09:19;2.55;;;2.15;;
27758;SDS011;15148;48.972;12.794;2023-07-28T19:14:21;3.15;;;1.80;;
27758;SDS011;15148;48.972;12.794;2023-07-28T19:19:23;2.25;;;1.80;;
27758;SDS011;15148;48.972;12.794;2023-07-28T19:24:25;3.17;;;1.95;;
27758;SDS011;15148;48.972;12.794;2023-07-28T19:29:27;2.17;;;1.73;;
27758;SDS011;15148;48.972;12.794;2023-07-28T19:34:29;3.15;;;1.75;;
27758;SDS011;15148;48.972;12.794;2023-07-28T19:39:33;1.60;;;1.40;;
27758;SDS011;15148;48.972;12.794;2023-07-28T19:44:35;2.65;;;1.85;;
27758;SDS011;15148;48.972;12.794;2023-07-28T19:49:43;2.23;;;1.67;;
27758;SDS011;15148;48.972;12.794;2023-07-28T19:54:55;4.10;;;1.83;;
27758;SDS011;15148;48.972;12.794;2023-07-28T19:59:57;3.17;;;1.83;;
27758;SDS011;15148;48.972;12.794;2023-07-28T20:05:00;2.05;;;1.85;;
27758;SDS011;15148;48.972;12.794;2023-07-28T20:10:02;4.45;;;1.60;;
27758;SDS011;15148;48.972;12.794;2023-07-28T20:15:04;3.28;;;1.83;;
27758;SDS011;15148;48.972;12.794;2023-07-28T20:20:07;2.33;;;1.73;;
27758;SDS011;15148;48.972;12.794;2023-07-28T20:25:09;2.67;;;2.00;;
27758;SDS011;15148;48.972;12.794;2023-07-28T20:30:11;2.92;;;1.75;;
27758;SDS011;15148;48.972;12.794;2023-07-28T20:35:13;5.57;;;1.90;;
27758;SDS011;15148;48.972;12.794;2023-07-28T20:40:15;1.70;;;1.60;;
27758;SDS011;15148;48.972;12.794;2023-07-28T20:45:17;1.60;;;1.50;;
27758;SDS011;15148;48.972;12.794;2023-07-28T20:50:22;2.45;;;1.65;;
27758;SDS011;15148;48.972;12.794;2023-07-28T20:55:24;7.07;;;2.00;;
27758;SDS011;15148;48.972;12.794;2023-07-28T21:00:26;2.72;;;1.88;;
27758;SDS011;15148;48.972;12.794;2023-07-28T21:05:28;4.55;;;2.20;;
27758;SDS011;15148;48.972;12.794;2023-07-28T21:10:30;3.45;;;2.00;;
27758;SDS011;15148;48.972;12.794;2023-07-28T21:15:35;1.88;;;1.77;;
27758;SDS011;15148;48.972;12.794;2023-07-28T21:20:37;2.38;;;1.77;;
27758;SDS011;15148;48.972;12.794;2023-07-28T21:25:40;2.45;;;1.80;;
27758;SDS011;15148;48.972;12.794;2023-07-28T21:30:42;4.70;;;2.10;;
27758;SDS011;15148;48.972;12.794;2023-07-28T21:35:46;1.80;;;1.70;;
27758;SDS011;15148;48.972;12.794;2023-07-28T21:40:48;4.07;;;1.73;;
27758;SDS011;15148;48.972;12.794;2023-07-28T21:45:51;3.28;;;2.40;;
27758;SDS011;15148;48.972;12.794;2023-07-28T21:50:53;4.47;;;1.85;;
27758;SDS011;15148;48.972;12.794;2023-07-28T21:55:55;5.57;;;1.92;;
27758;SDS011;15148;48.972;12.794;2023-07-28T22:00:57;4.43;;;1.70;;
27758;SDS011;15148;48.972;12.794;2023-07-28T22:05:59;4.72;;;1.88;;
27758;SDS011;15148;48.972;12.794;2023-07-28T22:11:01;2.03;;;1.92;;
27758;SDS011;15148;48.972;12.794;2023-07-28T22:16:03;2.10;;;1.90;;
27758;SDS011;15148;48.972;12.794;2023-07-28T22:21:05;4.55;;;1.98;;
27758;SDS011;15148;48.972;12.794;2023-07-28T22:26:07;2.85;;;2.03;;
27758;SDS011;15148;48.972;12.794;2023-07-28T22:31:09;7.57;;;2.58;;
27758;SDS011;15148;48.972;12.794;2023-07-28T22:36:11;3.00;;;1.92;;
27758;SDS011;15148;48.972;12.794;2023-07-28T22:41:13;3.53;;;1.70;;
27758;SDS011;15148;48.972;12.794;2023-07-28T22:46:15;9.07;;;3.33;;
27758;SDS011;15148;48.972;12.794;2023-07-28T22:51:17;3.67;;;2.47;;
27758;SDS011;15148;48.972;12.794;2023-07-28T22:56:19;6.03;;;2.58;;
27758;SDS011;15148;48.972;12.794;2023-07-28T23:01:21;3.33;;;2.22;;
27758;SDS011;15148;48.972;12.794;2023-07-28T23:06:23;9.18;;;3.50;;
27758;SDS011;15148;48.972;12.794;2023-07-28T23:11:25;6.38;;;3.47;;
27758;SDS011;15148;48.972;12.794;2023-07-28T23:16:27;6.15;;;4.03;;
27758;SDS011;15148;48.972;12.794;2023-07-28T23:21:29;7.13;;;3.95;;
27758;SDS011;15148;48.972;12.794;2023-07-28T23:26:31;3.92;;;3.22;;
27758;SDS011;15148;48.972;12.794;2023-07-28T23:31:33;4.30;;;3.90;;
27758;SDS011;15148;48.972;12.794;2023-07-28T23:36:36;6.18;;;3.33;;
27758;SDS011;15148;48.972;12.794;2023-07-28T23:41:38;4.88;;;3.72;;
27758;SDS011;15148;48.972;12.794;2023-07-28T23:46:40;4.85;;;3.60;;
27758;SDS011;15148;48.972;12.794;2023-07-28T23:51:42;5.53;;;3.97;;
27758;SDS011;15148;48.972;12.794;2023-07-28T23:56:44;5.18;;;3.30;;
